sensor_id;sensor_type;location;lat;lon;timestamp;temperature;humidity
13711;DHT22;6927;51.256;9.410;2023-03-21T00:01:33;8.10;1.00
13711;DHT22;6927;51.256;9.410;2023-03-21T00:03:58;8.10;99.90
13711;DHT22;6927;51.256;9.410;2023-03-21T00:06:24;8.10;77.10
13711;DHT22;6927;51.256;9.410;2023-03-21T00:08:50;8.20;99.90
13711;DHT22;6927;51.256;9.410;2023-03-21T00:11:16;8.20;69.70
13711;DHT22;6927;51.256;9.410;2023-03-21T00:13:41;8.30;1.00
13711;DHT22;6927;51.256;9.410;2023-03-21T00:16:16;8.20;1.00
13711;DHT22;6927;51.256;9.410;2023-03-21T00:18:47;8.20;1.00
13711;DHT22;6927;51.256;9.410;2023-03-21T00:21:18;8.20;1.00
13711;DHT22;6927;51.256;9.410;2023-03-21T00:23:44;8.20;99.90
13711;DHT22;6927;51.256;9.410;2023-03-21T00:26:11;8.10;1.00
13711;DHT22;6927;51.256;9.410;2023-03-21T00:28:38;8.10;1.00
13711;DHT22;6927;51.256;9.410;2023-03-21T00:31:04;8.10;99.90
13711;DHT22;6927;51.256;9.410;2023-03-21T00:33:31;8.10;99.90
13711;DHT22;6927;51.256;9.410;2023-03-21T00:35:56;8.10;99.90
13711;DHT22;6927;51.256;9.410;2023-03-21T00:38:23;8.10;1.00
13711;DHT22;6927;51.256;9.410;2023-03-21T00:40:49;8.10;61.30
13711;DHT22;6927;51.256;9.410;2023-03-21T00:43:16;8.10;1.00
13711;DHT22;6927;51.256;9.410;2023-03-21T00:45:45;8.10;99.90
13711;DHT22;6927;51.256;9.410;2023-03-21T00:48:11;8.20;1.00
13711;DHT22;6927;51.256;9.410;2023-03-21T00:50:37;8.10;1.00
13711;DHT22;6927;51.256;9.410;2023-03-21T00:53:04;8.10;1.00
13711;DHT22;6927;51.256;9.410;2023-03-21T00:55:30;8.10;1.00
13711;DHT22;6927;51.256;9.410;2023-03-21T00:57:55;8.10;1.00
13711;DHT22;6927;51.256;9.410;2023-03-21T01:00:21;8.10;1.00
13711;DHT22;6927;51.256;9.410;2023-03-21T01:02:47;8.20;1.00
13711;DHT22;6927;51.256;9.410;2023-03-21T01:05:28;8.10;1.00
13711;DHT22;6927;51.256;9.410;2023-03-21T01:08:14;8.10;99.90
13711;DHT22;6927;51.256;9.410;2023-03-21T01:10:43;8.10;1.00
13711;DHT22;6927;51.256;9.410;2023-03-21T01:13:10;8.10;99.90
13711;DHT22;6927;51.256;9.410;2023-03-21T01:15:42;8.20;99.90
13711;DHT22;6927;51.256;9.410;2023-03-21T01:18:08;8.20;99.90
13711;DHT22;6927;51.256;9.410;2023-03-21T01:20:34;8.20;62.10
13711;DHT22;6927;51.256;9.410;2023-03-21T01:22:59;8.10;55.70
13711;DHT22;6927;51.256;9.410;2023-03-21T01:25:25;8.10;99.90
13711;DHT22;6927;51.256;9.410;2023-03-21T01:27:51;8.10;99.90
13711;DHT22;6927;51.256;9.410;2023-03-21T01:30:17;8.00;1.00
13711;DHT22;6927;51.256;9.410;2023-03-21T01:32:42;8.00;1.00
13711;DHT22;6927;51.256;9.410;2023-03-21T01:35:08;8.00;1.00
13711;DHT22;6927;51.256;9.410;2023-03-21T01:37:34;8.00;1.00
13711;DHT22;6927;51.256;9.410;2023-03-21T01:39:59;8.00;1.00
13711;DHT22;6927;51.256;9.410;2023-03-21T01:42:25;8.00;1.00
13711;DHT22;6927;51.256;9.410;2023-03-21T01:45:03;8.00;1.00
13711;DHT22;6927;51.256;9.410;2023-03-21T01:47:29;8.00;1.00
13711;DHT22;6927;51.256;9.410;2023-03-21T01:49:58;8.00;1.00
13711;DHT22;6927;51.256;9.410;2023-03-21T01:52:31;8.00;1.00
13711;DHT22;6927;51.256;9.410;2023-03-21T01:54:57;8.00;1.00
13711;DHT22;6927;51.256;9.410;2023-03-21T01:57:29;8.00;99.90
13711;DHT22;6927;51.256;9.410;2023-03-21T01:59:58;8.00;99.90
13711;DHT22;6927;51.256;9.410;2023-03-21T02:02:29;8.00;1.00
13711;DHT22;6927;51.256;9.410;2023-03-21T02:04:56;8.00;99.90
13711;DHT22;6927;51.256;9.410;2023-03-21T02:07:30;8.00;99.90
13711;DHT22;6927;51.256;9.410;2023-03-21T02:10:02;8.00;99.90
13711;DHT22;6927;51.256;9.410;2023-03-21T02:12:30;7.90;1.00
13711;DHT22;6927;51.256;9.410;2023-03-21T02:14:56;7.90;1.00
13711;DHT22;6927;51.256;9.410;2023-03-21T02:29:08;7.90;99.90
13711;DHT22;6927;51.256;9.410;2023-03-21T02:32:08;7.90;99.90
13711;DHT22;6927;51.256;9.410;2023-03-21T02:37:24;7.90;99.90
13711;DHT22;6927;51.256;9.410;2023-03-21T02:46:04;7.90;1.00
13711;DHT22;6927;51.256;9.410;2023-03-21T02:48:34;8.00;1.00
13711;DHT22;6927;51.256;9.410;2023-03-21T02:51:04;8.00;1.00
13711;DHT22;6927;51.256;9.410;2023-03-21T02:53:36;8.10;1.00
13711;DHT22;6927;51.256;9.410;2023-03-21T02:56:03;8.00;99.90
13711;DHT22;6927;51.256;9.410;2023-03-21T02:58:35;8.00;99.90
13711;DHT22;6927;51.256;9.410;2023-03-21T03:01:02;8.00;55.00
13711;DHT22;6927;51.256;9.410;2023-03-21T03:03:28;8.00;1.00
13711;DHT22;6927;51.256;9.410;2023-03-21T03:05:56;7.90;1.00
13711;DHT22;6927;51.256;9.410;2023-03-21T03:11:24;7.90;99.90
13711;DHT22;6927;51.256;9.410;2023-03-21T03:22:31;7.90;1.00
13711;DHT22;6927;51.256;9.410;2023-03-21T03:25:30;7.90;1.00
13711;DHT22;6927;51.256;9.410;2023-03-21T03:28:04;8.00;1.00
13711;DHT22;6927;51.256;9.410;2023-03-21T03:33:41;7.90;1.00
13711;DHT22;6927;51.256;9.410;2023-03-21T03:43:00;7.90;1.00
13711;DHT22;6927;51.256;9.410;2023-03-21T03:45:49;7.90;99.90
13711;DHT22;6927;51.256;9.410;2023-03-21T03:52:25;7.80;1.00
13711;DHT22;6927;51.256;9.410;2023-03-21T03:54:55;7.90;1.00
13711;DHT22;6927;51.256;9.410;2023-03-21T03:57:34;7.90;1.00
13711;DHT22;6927;51.256;9.410;2023-03-21T04:00:04;7.90;1.00
13711;DHT22;6927;51.256;9.410;2023-03-21T04:02:44;7.90;1.00
13711;DHT22;6927;51.256;9.410;2023-03-21T04:05:10;7.80;1.00
13711;DHT22;6927;51.256;9.410;2023-03-21T04:07:41;7.80;99.90
13711;DHT22;6927;51.256;9.410;2023-03-21T04:10:17;7.80;99.90
13711;DHT22;6927;51.256;9.410;2023-03-21T04:12:53;7.80;99.90
13711;DHT22;6927;51.256;9.410;2023-03-21T04:15:33;7.70;1.00
13711;DHT22;6927;51.256;9.410;2023-03-21T04:17:59;7.70;99.90
13711;DHT22;6927;51.256;9.410;2023-03-21T04:20:40;7.70;1.00
13711;DHT22;6927;51.256;9.410;2023-03-21T04:26:58;7.70;1.00
13711;DHT22;6927;51.256;9.410;2023-03-21T04:29:52;7.70;99.90
13711;DHT22;6927;51.256;9.410;2023-03-21T04:35:31;7.70;99.90
13711;DHT22;6927;51.256;9.410;2023-03-21T04:38:06;7.80;1.00
13711;DHT22;6927;51.256;9.410;2023-03-21T04:40:44;7.80;1.00
13711;DHT22;6927;51.256;9.410;2023-03-21T04:43:10;7.80;1.00
13711;DHT22;6927;51.256;9.410;2023-03-21T04:45:46;7.80;99.90
13711;DHT22;6927;51.256;9.410;2023-03-21T04:48:14;7.80;99.90
13711;DHT22;6927;51.256;9.410;2023-03-21T04:50:43;7.80;99.90
13711;DHT22;6927;51.256;9.410;2023-03-21T04:53:08;7.80;99.90
13711;DHT22;6927;51.256;9.410;2023-03-21T04:55:34;7.80;1.00
13711;DHT22;6927;51.256;9.410;2023-03-21T04:58:02;7.70;1.00
13711;DHT22;6927;51.256;9.410;2023-03-21T05:00:27;7.70;1.00
13711;DHT22;6927;51.256;9.410;2023-03-21T05:02:53;7.70;1.00
13711;DHT22;6927;51.256;9.410;2023-03-21T05:05:19;7.70;1.00
13711;DHT22;6927;51.256;9.410;2023-03-21T05:07:45;7.70;1.00
13711;DHT22;6927;51.256;9.410;2023-03-21T05:10:11;7.70;1.00
13711;DHT22;6927;51.256;9.410;2023-03-21T05:12:37;7.70;1.00
13711;DHT22;6927;51.256;9.410;2023-03-21T05:15:02;7.70;1.00
13711;DHT22;6927;51.256;9.410;2023-03-21T05:17:28;7.70;1.00
13711;DHT22;6927;51.256;9.410;2023-03-21T05:19:54;7.70;1.00
13711;DHT22;6927;51.256;9.410;2023-03-21T05:22:24;7.70;1.00
13711;DHT22;6927;51.256;9.410;2023-03-21T05:24:51;7.70;1.00
13711;DHT22;6927;51.256;9.410;2023-03-21T05:27:20;7.70;1.00
13711;DHT22;6927;51.256;9.410;2023-03-21T05:30:07;7.70;1.00
13711;DHT22;6927;51.256;9.410;2023-03-21T05:32:34;7.80;1.00
13711;DHT22;6927;51.256;9.410;2023-03-21T05:35:00;7.80;1.00
13711;DHT22;6927;51.256;9.410;2023-03-21T05:37:25;7.80;99.90
13711;DHT22;6927;51.256;9.410;2023-03-21T05:39:51;7.80;99.90
13711;DHT22;6927;51.256;9.410;2023-03-21T05:42:17;7.80;99.90
13711;DHT22;6927;51.256;9.410;2023-03-21T05:44:43;7.80;99.90
13711;DHT22;6927;51.256;9.410;2023-03-21T05:47:11;7.80;99.90
13711;DHT22;6927;51.256;9.410;2023-03-21T05:49:37;7.80;99.90
13711;DHT22;6927;51.256;9.410;2023-03-21T05:52:02;7.90;99.90
13711;DHT22;6927;51.256;9.410;2023-03-21T05:54:28;7.90;99.90
13711;DHT22;6927;51.256;9.410;2023-03-21T05:56:53;8.00;1.00
13711;DHT22;6927;51.256;9.410;2023-03-21T05:59:19;8.00;1.00
13711;DHT22;6927;51.256;9.410;2023-03-21T06:01:45;8.00;1.00
13711;DHT22;6927;51.256;9.410;2023-03-21T06:04:11;8.10;99.90
13711;DHT22;6927;51.256;9.410;2023-03-21T06:06:36;8.20;1.00
13711;DHT22;6927;51.256;9.410;2023-03-21T06:09:02;8.30;1.00
13711;DHT22;6927;51.256;9.410;2023-03-21T06:11:30;8.30;1.00
13711;DHT22;6927;51.256;9.410;2023-03-21T06:13:56;8.30;1.00
13711;DHT22;6927;51.256;9.410;2023-03-21T06:16:22;8.30;1.00
13711;DHT22;6927;51.256;9.410;2023-03-21T06:18:47;8.30;99.90
13711;DHT22;6927;51.256;9.410;2023-03-21T06:21:13;8.30;1.00
13711;DHT22;6927;51.256;9.410;2023-03-21T06:23:39;8.30;1.00
13711;DHT22;6927;51.256;9.410;2023-03-21T06:26:05;8.30;99.90
13711;DHT22;6927;51.256;9.410;2023-03-21T06:28:31;8.30;1.00
13711;DHT22;6927;51.256;9.410;2023-03-21T06:30:56;8.50;99.90
13711;DHT22;6927;51.256;9.410;2023-03-21T06:33:23;8.40;1.00
13711;DHT22;6927;51.256;9.410;2023-03-21T06:35:53;8.40;99.90
13711;DHT22;6927;51.256;9.410;2023-03-21T06:38:19;8.50;1.00
13711;DHT22;6927;51.256;9.410;2023-03-21T06:40:46;8.60;99.90
13711;DHT22;6927;51.256;9.410;2023-03-21T06:43:12;8.70;58.80
13711;DHT22;6927;51.256;9.410;2023-03-21T06:45:37;8.60;1.00
13711;DHT22;6927;51.256;9.410;2023-03-21T06:48:03;8.60;5.90
13711;DHT22;6927;51.256;9.410;2023-03-21T06:50:29;8.60;1.00
13711;DHT22;6927;51.256;9.410;2023-03-21T06:52:54;8.60;99.90
13711;DHT22;6927;51.256;9.410;2023-03-21T06:55:22;8.50;1.00
13711;DHT22;6927;51.256;9.410;2023-03-21T06:57:52;8.60;99.90
13711;DHT22;6927;51.256;9.410;2023-03-21T07:00:18;8.60;1.00
13711;DHT22;6927;51.256;9.410;2023-03-21T07:02:44;8.60;63.50
13711;DHT22;6927;51.256;9.410;2023-03-21T07:05:10;8.60;99.90
13711;DHT22;6927;51.256;9.410;2023-03-21T07:07:37;8.70;1.00
13711;DHT22;6927;51.256;9.410;2023-03-21T07:10:03;8.70;99.90
13711;DHT22;6927;51.256;9.410;2023-03-21T07:12:28;8.80;99.90
13711;DHT22;6927;51.256;9.410;2023-03-21T07:14:54;8.80;1.00
13711;DHT22;6927;51.256;9.410;2023-03-21T07:17:19;8.90;1.00
13711;DHT22;6927;51.256;9.410;2023-03-21T07:19:45;9.00;1.00
13711;DHT22;6927;51.256;9.410;2023-03-21T07:22:11;9.00;99.90
13711;DHT22;6927;51.256;9.410;2023-03-21T07:24:36;8.90;1.00
13711;DHT22;6927;51.256;9.410;2023-03-21T07:27:01;9.00;99.90
13711;DHT22;6927;51.256;9.410;2023-03-21T07:29:27;9.00;99.90
13711;DHT22;6927;51.256;9.410;2023-03-21T07:31:52;9.10;1.00
13711;DHT22;6927;51.256;9.410;2023-03-21T07:34:18;9.30;1.00
13711;DHT22;6927;51.256;9.410;2023-03-21T07:36:43;9.30;99.90
13711;DHT22;6927;51.256;9.410;2023-03-21T07:39:09;9.30;99.90
13711;DHT22;6927;51.256;9.410;2023-03-21T07:41:35;9.30;99.90
13711;DHT22;6927;51.256;9.410;2023-03-21T07:44:00;9.30;99.90
13711;DHT22;6927;51.256;9.410;2023-03-21T07:46:27;9.40;99.90
13711;DHT22;6927;51.256;9.410;2023-03-21T07:48:53;9.50;99.90
13711;DHT22;6927;51.256;9.410;2023-03-21T07:51:18;9.40;1.00
13711;DHT22;6927;51.256;9.410;2023-03-21T07:53:44;9.50;99.90
13711;DHT22;6927;51.256;9.410;2023-03-21T07:56:13;9.50;1.00
13711;DHT22;6927;51.256;9.410;2023-03-21T07:58:38;9.50;1.00
13711;DHT22;6927;51.256;9.410;2023-03-21T08:01:04;9.50;1.00
13711;DHT22;6927;51.256;9.410;2023-03-21T08:03:30;9.50;1.00
13711;DHT22;6927;51.256;9.410;2023-03-21T08:05:58;9.50;99.90
13711;DHT22;6927;51.256;9.410;2023-03-21T08:08:25;9.50;1.00
13711;DHT22;6927;51.256;9.410;2023-03-21T08:10:51;9.60;1.00
13711;DHT22;6927;51.256;9.410;2023-03-21T08:13:16;9.80;1.00
13711;DHT22;6927;51.256;9.410;2023-03-21T08:15:42;9.90;99.90
13711;DHT22;6927;51.256;9.410;2023-03-21T08:18:08;10.00;1.00
13711;DHT22;6927;51.256;9.410;2023-03-21T08:20:34;10.00;1.00
13711;DHT22;6927;51.256;9.410;2023-03-21T08:23:00;10.00;99.90
13711;DHT22;6927;51.256;9.410;2023-03-21T08:25:26;10.10;1.00
13711;DHT22;6927;51.256;9.410;2023-03-21T08:27:52;10.10;1.00
13711;DHT22;6927;51.256;9.410;2023-03-21T08:30:20;10.10;1.00
13711;DHT22;6927;51.256;9.410;2023-03-21T08:32:46;10.20;1.00
13711;DHT22;6927;51.256;9.410;2023-03-21T08:35:13;10.20;1.00
13711;DHT22;6927;51.256;9.410;2023-03-21T08:37:40;10.20;1.00
13711;DHT22;6927;51.256;9.410;2023-03-21T08:40:09;10.20;1.00
13711;DHT22;6927;51.256;9.410;2023-03-21T08:42:36;10.20;1.00
13711;DHT22;6927;51.256;9.410;2023-03-21T08:45:03;10.20;14.40
13711;DHT22;6927;51.256;9.410;2023-03-21T08:47:29;10.10;1.00
13711;DHT22;6927;51.256;9.410;2023-03-21T08:49:55;10.20;1.00
13711;DHT22;6927;51.256;9.410;2023-03-21T08:52:21;10.40;1.00
13711;DHT22;6927;51.256;9.410;2023-03-21T08:54:47;10.60;1.00
13711;DHT22;6927;51.256;9.410;2023-03-21T08:57:13;10.80;99.90
13711;DHT22;6927;51.256;9.410;2023-03-21T08:59:39;10.90;99.90
13711;DHT22;6927;51.256;9.410;2023-03-21T09:02:05;11.00;99.90
13711;DHT22;6927;51.256;9.410;2023-03-21T09:04:31;11.10;99.90
13711;DHT22;6927;51.256;9.410;2023-03-21T09:06:57;11.30;71.30
13711;DHT22;6927;51.256;9.410;2023-03-21T09:09:26;11.20;50.10
13711;DHT22;6927;51.256;9.410;2023-03-21T09:11:52;11.20;83.60
13711;DHT22;6927;51.256;9.410;2023-03-21T09:14:18;11.10;20.80
13711;DHT22;6927;51.256;9.410;2023-03-21T09:16:43;11.10;1.00
13711;DHT22;6927;51.256;9.410;2023-03-21T09:19:09;11.30;1.00
13711;DHT22;6927;51.256;9.410;2023-03-21T09:21:35;11.70;1.00
13711;DHT22;6927;51.256;9.410;2023-03-21T09:24:01;11.90;1.00
13711;DHT22;6927;51.256;9.410;2023-03-21T09:26:27;11.90;1.00
13711;DHT22;6927;51.256;9.410;2023-03-21T09:28:54;11.80;1.00
13711;DHT22;6927;51.256;9.410;2023-03-21T09:31:20;12.00;1.00
13711;DHT22;6927;51.256;9.410;2023-03-21T09:33:49;12.30;1.00
13711;DHT22;6927;51.256;9.410;2023-03-21T09:36:16;12.80;1.00
13711;DHT22;6927;51.256;9.410;2023-03-21T09:38:45;13.10;1.00
13711;DHT22;6927;51.256;9.410;2023-03-21T09:41:49;13.00;1.00
13711;DHT22;6927;51.256;9.410;2023-03-21T09:47:14;12.40;1.00
13711;DHT22;6927;51.256;9.410;2023-03-21T09:49:48;12.50;1.00
13711;DHT22;6927;51.256;9.410;2023-03-21T09:54:53;12.30;1.00
13711;DHT22;6927;51.256;9.410;2023-03-21T09:57:37;12.30;1.00
13711;DHT22;6927;51.256;9.410;2023-03-21T10:00:06;12.30;1.00
13711;DHT22;6927;51.256;9.410;2023-03-21T10:02:40;12.30;1.00
13711;DHT22;6927;51.256;9.410;2023-03-21T10:05:23;12.20;1.00
13711;DHT22;6927;51.256;9.410;2023-03-21T10:10:47;12.20;1.00
13711;DHT22;6927;51.256;9.410;2023-03-21T10:13:23;12.40;1.00
13711;DHT22;6927;51.256;9.410;2023-03-21T10:15:50;12.40;1.00
13711;DHT22;6927;51.256;9.410;2023-03-21T10:18:26;12.40;1.00
13711;DHT22;6927;51.256;9.410;2023-03-21T10:20:53;12.20;1.00
13711;DHT22;6927;51.256;9.410;2023-03-21T10:23:21;12.30;1.00
13711;DHT22;6927;51.256;9.410;2023-03-21T10:25:51;12.30;1.00
13711;DHT22;6927;51.256;9.410;2023-03-21T10:28:24;12.40;1.00
13711;DHT22;6927;51.256;9.410;2023-03-21T10:30:56;12.30;1.00
13711;DHT22;6927;51.256;9.410;2023-03-21T10:33:38;12.20;1.00
13711;DHT22;6927;51.256;9.410;2023-03-21T10:36:22;12.40;27.20
13711;DHT22;6927;51.256;9.410;2023-03-21T10:39:00;12.50;58.40
13711;DHT22;6927;51.256;9.410;2023-03-21T10:41:26;12.60;1.00
13711;DHT22;6927;51.256;9.410;2023-03-21T10:44:13;12.50;1.00
13711;DHT22;6927;51.256;9.410;2023-03-21T10:46:54;12.60;1.00
13711;DHT22;6927;51.256;9.410;2023-03-21T10:49:21;12.60;1.00
13711;DHT22;6927;51.256;9.410;2023-03-21T10:51:50;12.70;1.00
13711;DHT22;6927;51.256;9.410;2023-03-21T10:54:19;12.70;1.00
13711;DHT22;6927;51.256;9.410;2023-03-21T10:57:10;12.90;1.00
13711;DHT22;6927;51.256;9.410;2023-03-21T10:59:52;13.00;1.00
13711;DHT22;6927;51.256;9.410;2023-03-21T11:02:25;13.10;1.00
13711;DHT22;6927;51.256;9.410;2023-03-21T11:04:53;13.10;1.00
13711;DHT22;6927;51.256;9.410;2023-03-21T11:07:20;13.00;1.00
13711;DHT22;6927;51.256;9.410;2023-03-21T11:09:53;13.00;1.00
13711;DHT22;6927;51.256;9.410;2023-03-21T11:12:36;13.00;1.00
13711;DHT22;6927;51.256;9.410;2023-03-21T11:15:30;12.90;1.00
13711;DHT22;6927;51.256;9.410;2023-03-21T11:17:58;13.00;1.00
13711;DHT22;6927;51.256;9.410;2023-03-21T11:20:25;13.00;1.00
13711;DHT22;6927;51.256;9.410;2023-03-21T11:22:54;13.00;1.00
13711;DHT22;6927;51.256;9.410;2023-03-21T11:25:34;12.80;1.00
13711;DHT22;6927;51.256;9.410;2023-03-21T11:28:07;12.50;99.90
13711;DHT22;6927;51.256;9.410;2023-03-21T11:30:33;12.30;99.90
13711;DHT22;6927;51.256;9.410;2023-03-21T11:33:02;12.30;1.00
13711;DHT22;6927;51.256;9.410;2023-03-21T11:35:36;12.20;1.00
13711;DHT22;6927;51.256;9.410;2023-03-21T11:38:03;12.10;1.00
13711;DHT22;6927;51.256;9.410;2023-03-21T11:40:31;11.90;1.00
13711;DHT22;6927;51.256;9.410;2023-03-21T11:43:00;11.80;99.90
13711;DHT22;6927;51.256;9.410;2023-03-21T11:45:28;11.70;99.90
13711;DHT22;6927;51.256;9.410;2023-03-21T11:47:55;11.70;1.00
13711;DHT22;6927;51.256;9.410;2023-03-21T11:50:34;11.60;32.30
13711;DHT22;6927;51.256;9.410;2023-03-21T11:56:31;11.50;99.90
13711;DHT22;6927;51.256;9.410;2023-03-21T11:59:15;11.60;99.90
13711;DHT22;6927;51.256;9.410;2023-03-21T12:07:41;11.50;1.00
13711;DHT22;6927;51.256;9.410;2023-03-21T12:13:12;11.30;1.00
13711;DHT22;6927;51.256;9.410;2023-03-21T12:15:47;11.20;1.00
13711;DHT22;6927;51.256;9.410;2023-03-21T12:21:04;11.20;1.00
13711;DHT22;6927;51.256;9.410;2023-03-21T12:23:56;11.20;1.00
13711;DHT22;6927;51.256;9.410;2023-03-21T12:26:30;11.20;99.90
13711;DHT22;6927;51.256;9.410;2023-03-21T12:37:26;11.10;99.90
13711;DHT22;6927;51.256;9.410;2023-03-21T12:40:16;11.00;1.00
13711;DHT22;6927;51.256;9.410;2023-03-21T12:42:59;11.00;47.40
13711;DHT22;6927;51.256;9.410;2023-03-21T12:45:38;11.10;28.40
13711;DHT22;6927;51.256;9.410;2023-03-21T12:48:35;10.90;1.00
13711;DHT22;6927;51.256;9.410;2023-03-21T12:51:04;10.90;1.00
13711;DHT22;6927;51.256;9.410;2023-03-21T12:56:51;10.80;21.60
13711;DHT22;6927;51.256;9.410;2023-03-21T12:59:37;10.60;99.90
13711;DHT22;6927;51.256;9.410;2023-03-21T13:04:56;10.50;99.90
13711;DHT22;6927;51.256;9.410;2023-03-21T13:07:22;10.30;99.90
13711;DHT22;6927;51.256;9.410;2023-03-21T13:09:49;10.30;99.90
13711;DHT22;6927;51.256;9.410;2023-03-21T13:12:32;10.20;99.90
13711;DHT22;6927;51.256;9.410;2023-03-21T13:15:15;10.20;99.90
13711;DHT22;6927;51.256;9.410;2023-03-21T13:17:52;10.20;99.90
13711;DHT22;6927;51.256;9.410;2023-03-21T13:23:10;10.10;99.90
13711;DHT22;6927;51.256;9.410;2023-03-21T13:25:44;10.10;99.90
13711;DHT22;6927;51.256;9.410;2023-03-21T13:30:45;10.10;99.90
13711;DHT22;6927;51.256;9.410;2023-03-21T13:33:15;10.00;99.90
13711;DHT22;6927;51.256;9.410;2023-03-21T13:35:44;10.00;99.90
13711;DHT22;6927;51.256;9.410;2023-03-21T13:38:20;10.00;99.90
13711;DHT22;6927;51.256;9.410;2023-03-21T13:40:59;9.90;99.90
13711;DHT22;6927;51.256;9.410;2023-03-21T13:48:59;9.80;99.90
13711;DHT22;6927;51.256;9.410;2023-03-21T13:54:01;9.80;99.90
13711;DHT22;6927;51.256;9.410;2023-03-21T13:56:27;9.80;99.90
13711;DHT22;6927;51.256;9.410;2023-03-21T13:59:00;9.80;99.90
13711;DHT22;6927;51.256;9.410;2023-03-21T14:01:30;9.80;99.90
13711;DHT22;6927;51.256;9.410;2023-03-21T14:04:09;9.90;99.90
13711;DHT22;6927;51.256;9.410;2023-03-21T14:07:02;9.90;99.90
13711;DHT22;6927;51.256;9.410;2023-03-21T14:09:37;9.90;99.90
13711;DHT22;6927;51.256;9.410;2023-03-21T14:12:07;9.90;99.90
13711;DHT22;6927;51.256;9.410;2023-03-21T14:14:40;10.00;99.90
13711;DHT22;6927;51.256;9.410;2023-03-21T14:17:19;9.90;99.90
13711;DHT22;6927;51.256;9.410;2023-03-21T14:19:49;9.90;99.90
13711;DHT22;6927;51.256;9.410;2023-03-21T14:22:15;9.80;99.90
13711;DHT22;6927;51.256;9.410;2023-03-21T14:24:47;9.80;99.90
13711;DHT22;6927;51.256;9.410;2023-03-21T14:27:12;9.80;99.90
13711;DHT22;6927;51.256;9.410;2023-03-21T14:29:38;9.80;99.90
13711;DHT22;6927;51.256;9.410;2023-03-21T14:32:04;9.80;99.90
13711;DHT22;6927;51.256;9.410;2023-03-21T14:34:32;9.80;99.90
13711;DHT22;6927;51.256;9.410;2023-03-21T14:36:59;9.80;99.90
13711;DHT22;6927;51.256;9.410;2023-03-21T14:39:30;9.80;99.90
13711;DHT22;6927;51.256;9.410;2023-03-21T14:42:09;9.80;99.90
13711;DHT22;6927;51.256;9.410;2023-03-21T14:44:40;9.80;99.90
13711;DHT22;6927;51.256;9.410;2023-03-21T14:47:15;9.80;99.90
13711;DHT22;6927;51.256;9.410;2023-03-21T14:49:42;9.80;99.90
13711;DHT22;6927;51.256;9.410;2023-03-21T14:52:13;9.80;99.90
13711;DHT22;6927;51.256;9.410;2023-03-21T14:54:41;9.80;99.90
13711;DHT22;6927;51.256;9.410;2023-03-21T14:57:19;9.80;99.90
13711;DHT22;6927;51.256;9.410;2023-03-21T14:59:49;9.80;99.90
13711;DHT22;6927;51.256;9.410;2023-03-21T15:02:32;9.80;99.90
13711;DHT22;6927;51.256;9.410;2023-03-21T15:05:23;9.80;99.90
13711;DHT22;6927;51.256;9.410;2023-03-21T15:07:59;9.80;99.90
13711;DHT22;6927;51.256;9.410;2023-03-21T15:10:27;9.60;99.90
13711;DHT22;6927;51.256;9.410;2023-03-21T15:12:58;9.60;99.90
13711;DHT22;6927;51.256;9.410;2023-03-21T15:15:26;9.60;99.90
13711;DHT22;6927;51.256;9.410;2023-03-21T15:17:52;9.60;99.90
13711;DHT22;6927;51.256;9.410;2023-03-21T15:20:24;9.60;99.90
13711;DHT22;6927;51.256;9.410;2023-03-21T15:22:58;9.50;99.90
13711;DHT22;6927;51.256;9.410;2023-03-21T15:25:27;9.60;99.90
13711;DHT22;6927;51.256;9.410;2023-03-21T15:27:55;9.50;99.90
13711;DHT22;6927;51.256;9.410;2023-03-21T15:30:27;9.50;99.90
13711;DHT22;6927;51.256;9.410;2023-03-21T15:32:53;9.50;99.90
13711;DHT22;6927;51.256;9.410;2023-03-21T15:35:25;9.40;99.90
13711;DHT22;6927;51.256;9.410;2023-03-21T15:37:56;9.40;99.90
13711;DHT22;6927;51.256;9.410;2023-03-21T15:40:29;9.30;99.90
13711;DHT22;6927;51.256;9.410;2023-03-21T15:45:30;9.30;99.90
13711;DHT22;6927;51.256;9.410;2023-03-21T15:48:08;9.30;99.90
13711;DHT22;6927;51.256;9.410;2023-03-21T15:50:42;9.20;99.90
13711;DHT22;6927;51.256;9.410;2023-03-21T15:53:14;9.20;99.90
13711;DHT22;6927;51.256;9.410;2023-03-21T15:55:51;9.20;99.90
13711;DHT22;6927;51.256;9.410;2023-03-21T15:58:22;9.20;99.90
13711;DHT22;6927;51.256;9.410;2023-03-21T16:00:54;9.20;99.90
13711;DHT22;6927;51.256;9.410;2023-03-21T16:03:36;9.20;99.90
13711;DHT22;6927;51.256;9.410;2023-03-21T16:06:15;9.20;99.90
13711;DHT22;6927;51.256;9.410;2023-03-21T16:08:47;9.10;99.90
13711;DHT22;6927;51.256;9.410;2023-03-21T16:11:27;9.10;99.90
13711;DHT22;6927;51.256;9.410;2023-03-21T16:13:54;9.10;99.90
13711;DHT22;6927;51.256;9.410;2023-03-21T16:16:25;9.10;99.90
13711;DHT22;6927;51.256;9.410;2023-03-21T16:18:53;9.10;99.90
13711;DHT22;6927;51.256;9.410;2023-03-21T16:21:24;9.10;99.90
13711;DHT22;6927;51.256;9.410;2023-03-21T16:23:50;9.00;99.90
13711;DHT22;6927;51.256;9.410;2023-03-21T16:26:20;9.00;99.90
13711;DHT22;6927;51.256;9.410;2023-03-21T16:28:47;8.90;99.90
13711;DHT22;6927;51.256;9.410;2023-03-21T16:31:15;8.90;99.90
13711;DHT22;6927;51.256;9.410;2023-03-21T16:33:42;8.90;99.90
13711;DHT22;6927;51.256;9.410;2023-03-21T16:36:12;8.90;99.90
13711;DHT22;6927;51.256;9.410;2023-03-21T16:38:38;8.90;99.90
13711;DHT22;6927;51.256;9.410;2023-03-21T16:41:08;8.90;99.90
13711;DHT22;6927;51.256;9.410;2023-03-21T16:43:34;8.90;99.90
13711;DHT22;6927;51.256;9.410;2023-03-21T16:46:01;8.90;99.90
13711;DHT22;6927;51.256;9.410;2023-03-21T16:48:27;8.90;99.90
13711;DHT22;6927;51.256;9.410;2023-03-21T16:50:52;8.80;99.90
13711;DHT22;6927;51.256;9.410;2023-03-21T16:53:18;8.80;99.90
13711;DHT22;6927;51.256;9.410;2023-03-21T16:55:43;8.80;99.90
13711;DHT22;6927;51.256;9.410;2023-03-21T16:58:13;8.80;99.90
13711;DHT22;6927;51.256;9.410;2023-03-21T17:00:40;8.80;99.90
13711;DHT22;6927;51.256;9.410;2023-03-21T17:03:13;8.80;99.90
13711;DHT22;6927;51.256;9.410;2023-03-21T17:05:39;8.80;99.90
13711;DHT22;6927;51.256;9.410;2023-03-21T17:08:05;8.80;99.90
13711;DHT22;6927;51.256;9.410;2023-03-21T17:10:31;8.90;99.90
13711;DHT22;6927;51.256;9.410;2023-03-21T17:12:57;8.90;99.90
13711;DHT22;6927;51.256;9.410;2023-03-21T17:15:22;8.90;99.90
13711;DHT22;6927;51.256;9.410;2023-03-21T17:17:48;8.90;99.90
13711;DHT22;6927;51.256;9.410;2023-03-21T17:20:16;8.90;99.90
13711;DHT22;6927;51.256;9.410;2023-03-21T17:22:42;8.80;99.90
13711;DHT22;6927;51.256;9.410;2023-03-21T17:25:08;8.80;99.90
13711;DHT22;6927;51.256;9.410;2023-03-21T17:27:34;8.70;99.90
13711;DHT22;6927;51.256;9.410;2023-03-21T17:30:00;8.70;99.90
13711;DHT22;6927;51.256;9.410;2023-03-21T17:32:25;8.70;99.90
13711;DHT22;6927;51.256;9.410;2023-03-21T17:35:15;8.70;99.90
13711;DHT22;6927;51.256;9.410;2023-03-21T17:37:50;8.70;99.90
13711;DHT22;6927;51.256;9.410;2023-03-21T17:40:21;8.70;99.90
13711;DHT22;6927;51.256;9.410;2023-03-21T17:42:58;8.60;99.90
13711;DHT22;6927;51.256;9.410;2023-03-21T17:45:56;8.60;99.90
13711;DHT22;6927;51.256;9.410;2023-03-21T17:48:22;8.60;99.90
13711;DHT22;6927;51.256;9.410;2023-03-21T17:50:53;8.60;99.90
13711;DHT22;6927;51.256;9.410;2023-03-21T17:56:36;8.60;99.90
13711;DHT22;6927;51.256;9.410;2023-03-21T17:59:09;8.50;99.90
13711;DHT22;6927;51.256;9.410;2023-03-21T18:01:40;8.50;99.90
13711;DHT22;6927;51.256;9.410;2023-03-21T18:04:22;8.50;99.90
13711;DHT22;6927;51.256;9.410;2023-03-21T18:07:21;8.50;99.90
13711;DHT22;6927;51.256;9.410;2023-03-21T18:09:49;8.50;99.90
13711;DHT22;6927;51.256;9.410;2023-03-21T18:12:25;8.50;99.90
13711;DHT22;6927;51.256;9.410;2023-03-21T18:14:55;8.50;99.90